createdAt,value
2022-08-27T00:02:05.654Z,5.47
2022-08-27T00:04:32.298Z,6.15
2022-08-27T00:06:59.355Z,6.13
2022-08-27T00:09:27.321Z,5.95
2022-08-27T00:11:54.720Z,5.43
2022-08-27T00:14:21.442Z,6.55
2022-08-27T00:16:47.918Z,5.88
2022-08-27T00:19:14.367Z,5.63
2022-08-27T00:21:40.743Z,5.60
2022-08-27T00:24:07.134Z,5.88
2022-08-27T00:26:33.804Z,5.50
2022-08-27T00:29:01.059Z,6.05
2022-08-27T00:31:27.824Z,5.53
2022-08-27T00:33:55.896Z,5.25
2022-08-27T00:36:23.173Z,5.85
2022-08-27T00:38:49.667Z,5.43
2022-08-27T00:41:20.497Z,5.60
2022-08-27T00:43:57.619Z,5.05
2022-08-27T00:46:23.944Z,5.18
2022-08-27T00:48:53.721Z,5.30
2022-08-27T00:51:20.459Z,5.53
2022-08-27T00:53:46.872Z,4.53
2022-08-27T00:56:24.845Z,5.50
2022-08-27T00:58:53.675Z,4.97
2022-08-27T01:01:32.351Z,5.38
2022-08-27T01:04:05.072Z,4.88
2022-08-27T01:06:35.512Z,5.53
2022-08-27T01:09:12.075Z,5.35
2022-08-27T01:11:38.944Z,5.30
2022-08-27T01:14:06.219Z,4.80
2022-08-27T01:16:38.723Z,5.20
2022-08-27T01:19:26.857Z,5.20
2022-08-27T01:22:01.902Z,5.35
2022-08-27T01:24:39.192Z,4.88
2022-08-27T01:27:13.564Z,5.70
2022-08-27T01:29:42.046Z,4.82
2022-08-27T01:32:16.474Z,5.25
2022-08-27T01:34:43.277Z,5.57
2022-08-27T01:37:10.639Z,5.85
2022-08-27T01:39:37.932Z,5.68
2022-08-27T01:42:07.818Z,5.15
2022-08-27T01:44:51.412Z,5.13
2022-08-27T01:49:45.905Z,5.68
2022-08-27T01:52:13.864Z,5.47
2022-08-27T01:54:40.650Z,5.43
2022-08-27T01:57:07.194Z,6.20
2022-08-27T01:59:39.416Z,5.72
2022-08-27T02:02:08.301Z,6.03
2022-08-27T02:04:34.759Z,5.90
2022-08-27T02:07:01.170Z,5.78
2022-08-27T02:09:27.787Z,5.50
2022-08-27T02:11:54.135Z,5.57
2022-08-27T02:14:20.829Z,6.72
2022-08-27T02:16:52.167Z,6.35
2022-08-27T02:19:20.216Z,6.20
2022-08-27T02:21:46.745Z,6.53
2022-08-27T02:24:13.146Z,6.35
2022-08-27T02:26:39.681Z,6.65
2022-08-27T02:29:06.460Z,6.70
2022-08-27T02:31:33.652Z,5.68
2022-08-27T02:34:00.205Z,5.65
2022-08-27T02:36:26.559Z,6.25
2022-08-27T02:38:52.927Z,6.55
2022-08-27T02:41:19.338Z,5.90
2022-08-27T02:43:45.828Z,6.60
2022-08-27T02:46:13.045Z,5.20
2022-08-27T02:48:40.212Z,5.35
2022-08-27T02:51:07.848Z,5.68
2022-08-27T02:53:36.328Z,5.97
2022-08-27T02:56:03.295Z,6.05
2022-08-27T02:58:29.735Z,5.15
2022-08-27T03:00:56.173Z,5.70
2022-08-27T03:03:22.791Z,5.40
2022-08-27T03:05:49.139Z,5.47
2022-08-27T03:08:15.956Z,5.22
2022-08-27T03:10:42.358Z,5.95
2022-08-27T03:13:08.976Z,5.68
2022-08-27T03:15:35.533Z,5.93
2022-08-27T03:18:02.011Z,5.35
2022-08-27T03:20:28.836Z,5.35
2022-08-27T03:22:55.825Z,5.13
2022-08-27T03:25:22.474Z,4.88
2022-08-27T03:27:48.868Z,4.88
2022-08-27T03:30:19.055Z,4.93
2022-08-27T03:32:46.100Z,5.15
2022-08-27T03:35:12.942Z,5.07
2022-08-27T03:37:39.744Z,5.60
2022-08-27T03:40:07.341Z,5.65
2022-08-27T03:42:34.944Z,5.40
2022-08-27T03:45:01.618Z,4.72
2022-08-27T03:47:28.014Z,5.30
2022-08-27T03:49:54.407Z,5.70
2022-08-27T03:52:20.815Z,5.32
2022-08-27T03:54:48.959Z,5.15
2022-08-27T03:57:15.285Z,5.65
2022-08-27T03:59:41.670Z,5.43
2022-08-27T04:02:08.099Z,5.07
2022-08-27T04:04:34.470Z,4.90
2022-08-27T04:07:00.834Z,5.00
2022-08-27T04:09:27.260Z,5.68
2022-08-27T04:11:53.717Z,4.25
2022-08-27T04:14:26.409Z,4.78
2022-08-27T04:16:56.853Z,5.57
2022-08-27T04:19:27.635Z,5.15
2022-08-27T04:21:58.897Z,4.53
2022-08-27T04:24:25.798Z,4.57
2022-08-27T04:26:52.163Z,4.53
2022-08-27T04:29:18.527Z,4.65
2022-08-27T04:31:44.984Z,4.10
2022-08-27T04:34:11.414Z,5.07
2022-08-27T04:36:37.772Z,4.55
2022-08-27T04:39:04.289Z,4.78
2022-08-27T04:41:30.690Z,3.50
2022-08-27T04:43:58.974Z,4.85
2022-08-27T04:46:28.880Z,4.38
2022-08-27T04:48:57.520Z,4.57
2022-08-27T04:51:24.846Z,4.70
2022-08-27T04:53:51.724Z,4.68
2022-08-27T04:56:20.927Z,5.13
2022-08-27T04:58:47.354Z,5.78
2022-08-27T05:01:23.248Z,4.75
2022-08-27T05:03:49.777Z,4.47
2022-08-27T05:06:16.549Z,3.95
2022-08-27T05:08:43.059Z,3.90
2022-08-27T05:11:12.050Z,4.05
2022-08-27T05:13:38.832Z,5.47
2022-08-27T05:16:08.821Z,5.07
2022-08-27T05:18:47.772Z,5.95
2022-08-27T05:21:23.976Z,4.57
2022-08-27T05:23:51.641Z,4.95
2022-08-27T05:26:18.223Z,5.28
2022-08-27T05:28:44.662Z,5.65
2022-08-27T05:31:13.791Z,5.72
2022-08-27T05:33:41.709Z,5.38
2022-08-27T05:36:15.669Z,5.13
2022-08-27T05:38:42.087Z,5.57
2022-08-27T05:41:14.269Z,4.05
2022-08-27T05:43:43.723Z,5.13
2022-08-27T05:46:16.552Z,5.13
2022-08-27T05:48:43.747Z,5.47
2022-08-27T05:51:13.164Z,4.82
2022-08-27T05:53:40.318Z,4.30
2022-08-27T05:56:19.200Z,4.53
2022-08-27T05:58:46.433Z,4.60
2022-08-27T06:01:13.109Z,5.15
2022-08-27T06:03:39.565Z,4.28
2022-08-27T06:06:08.603Z,4.63
2022-08-27T06:08:36.311Z,4.75
2022-08-27T06:11:04.680Z,4.68
2022-08-27T06:13:32.839Z,4.18
2022-08-27T06:16:05.098Z,4.30
2022-08-27T06:18:34.146Z,4.63
2022-08-27T06:21:00.716Z,4.45
2022-08-27T06:23:28.321Z,3.97
2022-08-27T06:25:56.144Z,5.13
2022-08-27T06:28:24.513Z,4.05
2022-08-27T06:30:51.199Z,3.75
2022-08-27T06:33:17.859Z,4.07
2022-08-27T06:35:44.216Z,4.00
2022-08-27T06:38:10.781Z,3.20
2022-08-27T06:40:40.899Z,4.90
2022-08-27T06:43:07.268Z,3.78
2022-08-27T06:45:38.052Z,3.38
2022-08-27T06:48:04.541Z,3.58
2022-08-27T06:50:37.249Z,3.28
2022-08-27T06:53:03.609Z,3.47
2022-08-27T06:55:32.187Z,4.05
2022-08-27T06:58:01.743Z,4.43
2022-08-27T07:00:29.672Z,3.80
2022-08-27T07:02:56.079Z,2.97
2022-08-27T07:05:22.437Z,3.58
2022-08-27T07:07:49.134Z,3.78
2022-08-27T07:10:15.509Z,3.92
2022-08-27T07:12:41.895Z,3.45
2022-08-27T07:15:09.068Z,3.70
2022-08-27T07:17:35.419Z,4.82
2022-08-27T07:20:01.970Z,5.30
2022-08-27T07:22:28.313Z,4.90
2022-08-27T07:24:54.819Z,3.53
2022-08-27T07:27:21.180Z,3.50
2022-08-27T07:29:47.780Z,4.00
2022-08-27T07:32:14.120Z,3.70
2022-08-27T07:34:40.452Z,3.75
2022-08-27T07:37:06.927Z,3.42
2022-08-27T07:39:33.280Z,4.47
2022-08-27T07:41:59.681Z,4.00
2022-08-27T07:44:30.953Z,4.18
2022-08-27T07:47:01.443Z,3.78
2022-08-27T07:49:28.768Z,3.65
2022-08-27T07:51:55.102Z,4.28
2022-08-27T07:54:22.166Z,3.65
2022-08-27T07:56:55.400Z,3.78
2022-08-27T07:59:26.225Z,3.42
2022-08-27T08:01:54.297Z,3.35
2022-08-27T08:04:20.807Z,3.78
2022-08-27T08:06:47.945Z,4.22
2022-08-27T08:09:15.191Z,4.43
2022-08-27T08:11:41.548Z,4.93
2022-08-27T08:14:07.883Z,2.92
2022-08-27T08:16:34.354Z,2.80
2022-08-27T08:19:00.691Z,3.40
2022-08-27T08:21:27.213Z,3.35
2022-08-27T08:23:53.717Z,3.65
2022-08-27T08:26:20.118Z,2.97
2022-08-27T08:28:46.592Z,3.63
2022-08-27T08:31:13.166Z,3.05
2022-08-27T08:33:40.045Z,3.50
2022-08-27T08:36:10.011Z,3.85
2022-08-27T08:38:37.492Z,2.80
2022-08-27T08:41:06.483Z,3.38
2022-08-27T08:43:39.060Z,3.78
2022-08-27T08:46:16.005Z,3.00
2022-08-27T08:48:46.022Z,2.85
2022-08-27T08:51:32.582Z,3.58
2022-08-27T08:54:04.963Z,3.85
2022-08-27T08:56:57.150Z,3.30
2022-08-27T08:59:33.489Z,3.67
2022-08-27T09:02:00.149Z,2.85
2022-08-27T09:04:28.024Z,3.70
2022-08-27T09:06:56.363Z,3.85
2022-08-27T09:09:37.132Z,3.55
2022-08-27T09:12:13.513Z,3.00
2022-08-27T09:14:48.843Z,3.95
2022-08-27T09:17:16.794Z,3.30
2022-08-27T09:19:43.224Z,4.00
2022-08-27T09:22:23.855Z,4.20
2022-08-27T09:24:53.224Z,4.00
2022-08-27T09:27:20.915Z,3.40
2022-08-27T09:29:52.979Z,3.83
2022-08-27T09:32:25.869Z,3.67
2022-08-27T09:34:52.480Z,3.80
2022-08-27T09:37:23.863Z,4.10
2022-08-27T09:40:27.267Z,3.97
2022-08-27T09:42:57.580Z,3.90
2022-08-27T09:45:29.511Z,3.45
2022-08-27T09:48:04.574Z,3.50
2022-08-27T09:50:41.725Z,3.67
2022-08-27T09:53:29.934Z,3.92
2022-08-27T09:56:04.790Z,3.38
2022-08-27T09:58:47.274Z,3.70
2022-08-27T10:01:19.139Z,3.42
2022-08-27T10:03:45.654Z,3.17
2022-08-27T10:06:12.082Z,3.50
2022-08-27T10:08:45.933Z,3.30
2022-08-27T10:11:32.983Z,3.17
2022-08-27T10:14:06.325Z,3.22
2022-08-27T10:17:00.796Z,3.63
2022-08-27T10:19:42.676Z,3.95
2022-08-27T10:22:24.399Z,3.80
2022-08-27T10:25:15.730Z,3.95
2022-08-27T10:27:57.685Z,3.50
2022-08-27T10:30:46.598Z,3.33
2022-08-27T10:33:23.520Z,3.67
2022-08-27T10:36:00.933Z,3.38
2022-08-27T10:38:44.947Z,3.35
2022-08-27T10:41:36.135Z,3.35
2022-08-27T10:44:20.923Z,5.00
2022-08-27T10:47:06.619Z,3.53
2022-08-27T10:49:59.541Z,4.45
2022-08-27T10:52:30.964Z,3.30
2022-08-27T10:55:09.193Z,2.97
2022-08-27T10:58:00.363Z,3.28
2022-08-27T11:00:42.154Z,2.85
2022-08-27T11:03:18.528Z,2.72
2022-08-27T11:05:48.620Z,2.95
2022-08-27T11:08:17.831Z,2.58
2022-08-27T11:10:51.644Z,3.17
2022-08-27T11:13:35.197Z,2.90
2022-08-27T11:16:12.021Z,2.88
2022-08-27T11:18:47.274Z,2.38
2022-08-27T11:21:23.733Z,2.75
2022-08-27T11:24:00.419Z,2.22
2022-08-27T11:26:31.687Z,2.75
2022-08-27T11:29:01.283Z,2.90
2022-08-27T11:31:44.211Z,2.65
2022-08-27T11:34:56.505Z,2.58
2022-08-27T11:37:50.507Z,3.08
2022-08-27T11:40:51.690Z,3.05
2022-08-27T11:43:23.553Z,3.47
2022-08-27T11:46:09.134Z,2.95
2022-08-27T11:48:41.580Z,2.33
2022-08-27T11:51:18.604Z,3.05
2022-08-27T11:53:57.476Z,3.45
2022-08-27T11:56:29.736Z,2.80
2022-08-27T11:59:08.287Z,2.83
2022-08-27T12:01:34.888Z,2.90
2022-08-27T12:04:03.252Z,2.97
2022-08-27T12:06:41.799Z,3.08
2022-08-27T12:09:22.880Z,2.70
2022-08-27T12:12:14.851Z,3.15
2022-08-27T12:15:16.361Z,3.15
2022-08-27T12:17:47.946Z,3.17
2022-08-27T12:20:27.570Z,2.95
2022-08-27T12:23:07.257Z,2.80
2022-08-27T12:25:33.757Z,3.33
2022-08-27T12:28:05.247Z,3.05
2022-08-27T12:30:37.699Z,3.45
2022-08-27T12:33:13.138Z,3.45
2022-08-27T12:35:47.160Z,2.75
2022-08-27T12:38:17.102Z,3.03
2022-08-27T12:40:53.201Z,2.97
2022-08-27T12:43:22.963Z,3.17
2022-08-27T12:45:52.543Z,3.50
2022-08-27T12:48:23.235Z,3.40
2022-08-27T12:50:53.579Z,3.15
2022-08-27T12:53:43.246Z,3.70
2022-08-27T12:56:29.852Z,3.15
2022-08-27T12:59:08.981Z,2.70
2022-08-27T13:02:09.191Z,3.20
2022-08-27T13:04:39.464Z,2.58
2022-08-27T13:07:05.894Z,3.30
2022-08-27T13:09:36.459Z,3.30
2022-08-27T13:12:06.925Z,2.78
2022-08-27T13:14:39.171Z,3.13
2022-08-27T13:17:18.228Z,3.60
2022-08-27T13:19:48.044Z,3.25
2022-08-27T13:22:24.877Z,2.83
2022-08-27T13:24:53.795Z,2.80
2022-08-27T13:27:32.453Z,2.70
2022-08-27T13:30:11.859Z,3.67
2022-08-27T13:32:50.600Z,2.75
2022-08-27T13:35:18.880Z,2.95
2022-08-27T13:37:50.022Z,3.20
2022-08-27T13:40:31.487Z,3.20
2022-08-27T13:43:04.926Z,3.28
2022-08-27T13:45:38.509Z,3.65
2022-08-27T13:48:05.951Z,2.92
2022-08-27T13:50:34.306Z,3.22
2022-08-27T13:53:04.016Z,2.97
2022-08-27T13:55:30.936Z,3.35
2022-08-27T13:58:00.188Z,3.45
2022-08-27T14:00:30.061Z,4.00
2022-08-27T14:02:56.797Z,3.65
2022-08-27T14:05:23.170Z,3.72
2022-08-27T14:07:53.195Z,3.63
2022-08-27T14:10:34.541Z,3.20
2022-08-27T14:13:05.555Z,5.13
2022-08-27T14:15:53.808Z,3.05
2022-08-27T14:18:55.155Z,3.80
2022-08-27T14:21:16.190Z,3.55
2022-08-27T14:23:42.829Z,3.55
2022-08-27T14:26:09.205Z,3.30
2022-08-27T14:28:35.818Z,2.60
2022-08-27T14:31:02.484Z,3.42
2022-08-27T14:33:28.922Z,3.42
2022-08-27T14:35:55.319Z,3.92
2022-08-27T14:38:23.736Z,3.75
2022-08-27T14:40:52.825Z,4.25
2022-08-27T14:43:20.489Z,2.95
2022-08-27T14:45:49.768Z,3.58
2022-08-27T14:48:29.592Z,4.10
2022-08-27T14:50:57.271Z,3.15
2022-08-27T14:53:24.559Z,3.28
2022-08-27T14:55:51.668Z,3.47
2022-08-27T14:58:18.945Z,3.58
2022-08-27T15:00:45.407Z,2.83
2022-08-27T15:03:12.444Z,3.22
2022-08-27T15:05:39.001Z,3.72
2022-08-27T15:08:06.721Z,4.03
2022-08-27T15:10:37.607Z,3.28
2022-08-27T15:13:03.965Z,3.45
2022-08-27T15:15:30.355Z,3.20
2022-08-27T15:17:56.700Z,3.30
2022-08-27T15:20:23.239Z,3.00
2022-08-27T15:22:51.880Z,3.40
2022-08-27T15:25:20.062Z,3.03
2022-08-27T15:27:46.563Z,2.85
2022-08-27T15:30:15.131Z,2.70
2022-08-27T15:32:44.960Z,3.03
2022-08-27T15:35:18.297Z,3.67
2022-08-27T15:37:44.886Z,3.08
2022-08-27T15:40:13.844Z,3.60
2022-08-27T15:42:41.032Z,3.10
2022-08-27T15:45:08.848Z,3.30
2022-08-27T15:47:35.269Z,3.47
2022-08-27T15:50:01.718Z,4.03
2022-08-27T15:52:40.519Z,3.53
2022-08-27T15:55:14.237Z,3.70
2022-08-27T15:57:40.666Z,3.38
2022-08-27T16:00:07.750Z,3.00
2022-08-27T16:02:34.344Z,4.10
2022-08-27T16:05:00.770Z,3.17
2022-08-27T16:07:27.143Z,3.13
2022-08-27T16:09:53.474Z,3.83
2022-08-27T16:12:26.940Z,3.10
2022-08-27T16:14:54.438Z,2.88
2022-08-27T16:17:20.870Z,3.00
2022-08-27T16:19:47.224Z,3.47
2022-08-27T16:22:13.570Z,3.30
2022-08-27T16:24:39.895Z,2.92
2022-08-27T16:27:06.230Z,2.63
2022-08-27T16:29:32.853Z,3.40
2022-08-27T16:32:01.398Z,3.47
2022-08-27T16:34:29.705Z,3.25
2022-08-27T16:36:56.446Z,3.83
2022-08-27T16:39:23.373Z,3.22
2022-08-27T16:41:49.928Z,2.92
2022-08-27T16:44:16.544Z,3.42
2022-08-27T16:46:42.963Z,3.50
2022-08-27T16:49:09.327Z,4.03
2022-08-27T16:51:36.139Z,3.10
2022-08-27T16:54:04.647Z,2.90
2022-08-27T16:56:32.827Z,2.60
2022-08-27T16:59:03.876Z,3.03
2022-08-27T17:01:30.310Z,2.70
2022-08-27T17:04:09.060Z,2.85
2022-08-27T17:06:39.751Z,2.88
2022-08-27T17:09:07.361Z,2.88
2022-08-27T17:11:35.522Z,2.55
2022-08-27T17:14:03.153Z,3.22
2022-08-27T17:16:31.933Z,2.30
2022-08-27T17:18:59.602Z,2.67
2022-08-27T17:21:29.816Z,3.03
2022-08-27T17:23:58.542Z,2.58
2022-08-27T17:26:25.680Z,3.00
2022-08-27T17:28:52.558Z,2.60
2022-08-27T17:31:29.561Z,3.00
2022-08-27T17:33:59.404Z,3.38
2022-08-27T17:36:27.756Z,2.30
2022-08-27T17:38:54.547Z,2.88
2022-08-27T17:41:20.801Z,2.55
2022-08-27T17:43:47.187Z,2.25
2022-08-27T17:46:14.037Z,2.95
2022-08-27T17:48:41.267Z,2.30
2022-08-27T17:51:09.831Z,2.50
2022-08-27T17:53:41.803Z,2.65
2022-08-27T17:56:08.152Z,2.67
2022-08-27T17:58:34.452Z,2.40
2022-08-27T18:01:00.959Z,2.33
2022-08-27T18:03:28.181Z,2.42
2022-08-27T18:05:54.572Z,2.42
2022-08-27T18:08:20.927Z,2.92
2022-08-27T18:10:49.773Z,2.80
2022-08-27T18:13:17.445Z,2.30
2022-08-27T18:15:43.993Z,2.00
2022-08-27T18:18:13.604Z,2.70
2022-08-27T18:20:42.499Z,2.10
2022-08-27T18:23:09.894Z,3.05
2022-08-27T18:25:38.323Z,2.60
2022-08-27T18:28:08.667Z,2.47
2022-08-27T18:30:35.480Z,2.45
2022-08-27T18:33:01.858Z,2.50
2022-08-27T18:35:31.073Z,2.38
2022-08-27T18:37:57.924Z,3.42
2022-08-27T18:40:30.796Z,2.90
2022-08-27T18:42:57.652Z,2.30
2022-08-27T18:45:26.879Z,2.25
2022-08-27T18:47:58.589Z,2.55
2022-08-27T18:50:26.377Z,2.15
2022-08-27T18:52:55.132Z,2.40
2022-08-27T18:55:25.662Z,2.33
2022-08-27T18:57:52.312Z,2.38
2022-08-27T19:00:19.913Z,2.30
2022-08-27T19:02:52.282Z,2.47
2022-08-27T19:05:26.721Z,2.53
2022-08-27T19:07:53.371Z,2.38
2022-08-27T19:10:20.104Z,2.58
2022-08-27T19:12:47.592Z,2.20
2022-08-27T19:15:14.564Z,2.72
2022-08-27T19:17:43.696Z,2.35
2022-08-27T19:20:10.164Z,2.30
2022-08-27T19:22:36.607Z,2.60
2022-08-27T19:25:05.043Z,2.60
2022-08-27T19:27:31.463Z,2.92
2022-08-27T19:29:57.787Z,2.70
2022-08-27T19:32:24.201Z,1.95
2022-08-27T19:34:50.600Z,2.15
2022-08-27T19:37:22.120Z,2.72
2022-08-27T19:39:48.559Z,3.42
2022-08-27T19:42:15.022Z,2.30
2022-08-27T19:44:41.638Z,2.58
2022-08-27T19:47:09.893Z,3.45
2022-08-27T19:49:37.075Z,2.65
2022-08-27T19:52:08.239Z,2.55
2022-08-27T19:54:43.170Z,3.15
2022-08-27T19:57:18.488Z,3.45
2022-08-27T19:59:44.861Z,3.05
2022-08-27T20:02:11.265Z,2.60
2022-08-27T20:04:51.407Z,3.20
2022-08-27T20:07:24.731Z,2.53
2022-08-27T20:09:51.075Z,2.90
2022-08-27T20:12:17.449Z,2.85
2022-08-27T20:14:43.794Z,3.88
2022-08-27T20:17:13.144Z,4.10
2022-08-27T20:19:39.561Z,3.42
2022-08-27T20:22:06.042Z,3.47
2022-08-27T20:24:32.444Z,4.30
2022-08-27T20:26:59.017Z,3.17
2022-08-27T20:29:32.545Z,3.50
2022-08-27T20:31:59.393Z,3.17
2022-08-27T20:34:26.017Z,4.13
2022-08-27T20:36:55.936Z,3.78
2022-08-27T20:39:22.379Z,3.25
2022-08-27T20:41:48.792Z,3.22
2022-08-27T20:44:15.104Z,3.38
2022-08-27T20:46:42.924Z,3.05
2022-08-27T20:49:15.263Z,3.70
2022-08-27T20:52:01.880Z,3.58
2022-08-27T20:54:27.891Z,3.88
2022-08-27T20:56:54.229Z,3.78
2022-08-27T20:59:20.587Z,3.97
2022-08-27T21:01:46.947Z,3.58
2022-08-27T21:04:13.319Z,3.90
2022-08-27T21:06:39.624Z,3.95
2022-08-27T21:09:05.984Z,3.17
2022-08-27T21:11:32.686Z,3.78
2022-08-27T21:13:58.988Z,3.05
2022-08-27T21:16:26.037Z,3.58
2022-08-27T21:18:52.421Z,4.05
2022-08-27T21:21:19.562Z,4.15
2022-08-27T21:23:45.954Z,3.65
2022-08-27T21:26:13.114Z,4.25
2022-08-27T21:28:42.655Z,3.58
2022-08-27T21:31:09.749Z,4.68
2022-08-27T21:33:36.150Z,3.67
2022-08-27T21:36:08.951Z,3.78
2022-08-27T21:38:37.726Z,4.30
2022-08-27T21:41:04.063Z,3.42
2022-08-27T21:43:30.392Z,3.25
2022-08-27T21:45:57.918Z,4.35
2022-08-27T21:48:24.404Z,3.85
2022-08-27T21:50:53.504Z,3.80
2022-08-27T21:53:20.437Z,3.60
2022-08-27T21:55:46.871Z,3.78
2022-08-27T21:58:14.335Z,3.55
2022-08-27T22:00:44.799Z,3.53
2022-08-27T22:03:14.160Z,4.68
2022-08-27T22:05:42.320Z,4.05
2022-08-27T22:08:10.642Z,4.22
2022-08-27T22:10:38.472Z,3.55
2022-08-27T22:13:05.870Z,3.78
2022-08-27T22:15:32.560Z,4.20
2022-08-27T22:17:59.226Z,3.78
2022-08-27T22:20:26.036Z,4.10
2022-08-27T22:22:52.644Z,5.18
2022-08-27T22:25:19.716Z,3.90
2022-08-27T22:27:46.168Z,4.35
2022-08-27T22:30:13.020Z,3.53
2022-08-27T22:32:39.932Z,4.95
2022-08-27T22:35:07.886Z,4.72
2022-08-27T22:37:34.284Z,3.53
2022-08-27T22:40:00.644Z,4.05
2022-08-27T22:42:28.275Z,4.88
2022-08-27T22:44:54.650Z,4.18
2022-08-27T22:47:20.968Z,4.72
2022-08-27T22:49:47.290Z,3.88
2022-08-27T22:52:19.478Z,4.35
2022-08-27T22:54:49.415Z,4.55
2022-08-27T22:57:21.280Z,4.47
2022-08-27T22:59:47.591Z,4.68
2022-08-27T23:02:13.932Z,4.68
2022-08-27T23:04:54.755Z,4.32
2022-08-27T23:07:22.092Z,4.88
2022-08-27T23:09:48.445Z,4.43
2022-08-27T23:12:14.762Z,4.45
2022-08-27T23:14:41.092Z,4.82
2022-08-27T23:17:07.420Z,4.53
2022-08-27T23:19:33.788Z,4.38
2022-08-27T23:22:00.155Z,4.10
2022-08-27T23:24:26.659Z,4.57
2022-08-27T23:26:52.989Z,4.78
2022-08-27T23:29:21.258Z,4.60
2022-08-27T23:31:47.660Z,4.78
2022-08-27T23:34:14.022Z,4.95
2022-08-27T23:36:40.322Z,4.10
2022-08-27T23:39:06.662Z,4.55
2022-08-27T23:41:32.965Z,4.90
2022-08-27T23:43:59.278Z,4.40
2022-08-27T23:46:25.642Z,4.55
2022-08-27T23:48:52.009Z,4.88
2022-08-27T23:51:18.370Z,5.38
2022-08-27T23:53:44.939Z,5.43
2022-08-27T23:56:11.239Z,4.80
2022-08-27T23:58:37.558Z,4.40
